createdAt,value
2018-03-27T00:00:59.823Z,41.25
2018-03-27T00:03:26.452Z,37.38
2018-03-27T00:05:53.246Z,39.58
2018-03-27T00:08:20.179Z,37.45
2018-03-27T00:10:46.782Z,39.63
2018-03-27T00:13:13.614Z,36.92
2018-03-27T00:15:40.171Z,37.42
2018-03-27T00:18:07.061Z,37.75
2018-03-27T00:20:33.738Z,42.58
2018-03-27T00:23:00.302Z,35.92
2018-03-27T00:25:27.052Z,38.00
2018-03-27T00:28:06.186Z,35.95
2018-03-27T00:30:50.980Z,36.35
2018-03-27T00:33:35.796Z,34.60
2018-03-27T00:36:20.657Z,37.03
2018-03-27T00:39:05.964Z,38.55
2018-03-27T00:44:50.810Z,36.60
2018-03-27T00:47:17.355Z,37.45
2018-03-27T00:49:44.009Z,36.67
2018-03-27T00:52:11.024Z,36.58
2018-03-27T00:54:37.989Z,33.03
2018-03-27T00:57:04.846Z,33.80
2018-03-27T00:59:31.438Z,37.10
2018-03-27T01:01:57.982Z,40.03
2018-03-27T01:04:24.570Z,33.72
2018-03-27T01:06:52.142Z,32.08
2018-03-27T01:09:18.818Z,31.85
2018-03-27T01:11:45.430Z,32.60
2018-03-27T01:14:12.720Z,31.62
2018-03-27T01:16:39.744Z,32.08
2018-03-27T01:19:06.480Z,30.30
2018-03-27T01:21:33.374Z,29.15
2018-03-27T01:24:00.438Z,29.65
2018-03-27T01:26:27.276Z,29.05
2018-03-27T01:28:54.058Z,28.02
2018-03-27T01:31:20.592Z,26.60
2018-03-27T01:33:47.374Z,25.62
2018-03-27T01:36:14.668Z,27.42
2018-03-27T01:38:41.971Z,27.27
2018-03-27T01:41:08.956Z,27.42
2018-03-27T01:43:35.869Z,27.30
2018-03-27T01:46:02.701Z,27.17
2018-03-27T01:48:29.844Z,27.45
2018-03-27T01:50:57.063Z,27.25
2018-03-27T01:53:24.526Z,30.67
2018-03-27T01:55:52.394Z,26.27
2018-03-27T01:58:19.906Z,28.00
2018-03-27T02:00:46.901Z,30.33
2018-03-27T02:03:13.446Z,25.27
2018-03-27T02:05:40.392Z,24.50
2018-03-27T02:08:07.526Z,24.70
2018-03-27T02:10:34.565Z,24.60
2018-03-27T02:13:07.639Z,27.20
2018-03-27T02:15:40.369Z,24.33
2018-03-27T02:18:13.616Z,26.02
2018-03-27T02:20:46.311Z,21.55
2018-03-27T02:23:22.782Z,20.77
2018-03-27T02:25:50.183Z,22.77
2018-03-27T02:28:17.037Z,21.12
2018-03-27T02:30:51.069Z,23.67
2018-03-27T02:33:18.081Z,19.65
2018-03-27T02:35:45.519Z,21.58
2018-03-27T02:38:12.413Z,22.35
2018-03-27T02:40:39.386Z,22.08
2018-03-27T02:43:06.153Z,23.48
2018-03-27T02:45:32.629Z,21.77
2018-03-27T02:47:59.286Z,19.37
2018-03-27T02:50:25.890Z,19.42
2018-03-27T02:52:53.338Z,20.05
2018-03-27T02:55:19.989Z,20.50
2018-03-27T02:57:46.786Z,20.52
2018-03-27T03:00:14.129Z,22.30
2018-03-27T03:02:40.893Z,19.73
2018-03-27T03:05:07.625Z,19.27
2018-03-27T03:07:34.329Z,19.87
2018-03-27T03:10:01.751Z,16.27
2018-03-27T03:12:29.146Z,18.40
2018-03-27T03:14:55.881Z,16.17
2018-03-27T03:17:22.893Z,15.38
2018-03-27T03:19:49.889Z,17.02
2018-03-27T03:22:16.754Z,15.60
2018-03-27T03:24:44.156Z,18.00
2018-03-27T03:27:11.328Z,17.37
2018-03-27T03:29:38.201Z,17.52
2018-03-27T03:32:05.321Z,17.15
2018-03-27T03:34:32.095Z,16.27
2018-03-27T03:36:59.018Z,18.75
2018-03-27T03:39:26.033Z,17.42
2018-03-27T03:41:52.785Z,20.40
2018-03-27T03:44:19.490Z,19.37
2018-03-27T03:46:46.288Z,16.62
2018-03-27T03:49:12.958Z,17.42
2018-03-27T03:51:39.691Z,16.70
2018-03-27T03:54:06.480Z,17.75
2018-03-27T03:56:34.046Z,18.10
2018-03-27T03:59:00.841Z,18.10
2018-03-27T04:01:27.928Z,19.80
2018-03-27T04:03:55.076Z,16.02
2018-03-27T04:06:22.187Z,16.73
2018-03-27T04:08:49.865Z,12.57
2018-03-27T04:11:17.003Z,12.10
2018-03-27T04:13:43.811Z,12.32
2018-03-27T04:16:10.831Z,11.40
2018-03-27T04:18:37.848Z,12.80
2018-03-27T04:21:04.499Z,10.65
2018-03-27T04:23:31.294Z,10.38
2018-03-27T04:25:57.875Z,10.35
2018-03-27T04:28:24.762Z,8.63
2018-03-27T04:30:51.358Z,8.25
2018-03-27T04:33:18.606Z,8.48
2018-03-27T04:35:45.262Z,7.43
2018-03-27T04:38:12.112Z,7.47
2018-03-27T04:40:38.790Z,7.37
2018-03-27T04:43:05.370Z,6.80
2018-03-27T04:45:31.829Z,6.80
2018-03-27T04:47:58.659Z,6.10
2018-03-27T04:50:25.172Z,5.97
2018-03-27T04:52:51.850Z,6.00
2018-03-27T04:55:18.358Z,5.35
2018-03-27T04:57:45.310Z,4.75
2018-03-27T05:00:12.411Z,5.72
2018-03-27T05:02:39.504Z,4.62
2018-03-27T05:05:06.446Z,5.72
2018-03-27T05:07:33.503Z,6.20
2018-03-27T05:10:00.328Z,4.43
2018-03-27T05:12:27.138Z,4.72
2018-03-27T05:14:54.003Z,4.87
2018-03-27T05:17:21.453Z,4.20
2018-03-27T05:19:48.199Z,3.60
2018-03-27T05:22:15.638Z,3.80
2018-03-27T05:24:42.736Z,4.65
2018-03-27T05:27:09.345Z,4.30
2018-03-27T05:29:36.183Z,3.90
2018-03-27T05:32:03.329Z,4.03
2018-03-27T05:34:29.972Z,3.40
2018-03-27T05:36:56.573Z,4.32
2018-03-27T05:39:23.782Z,4.45
2018-03-27T05:41:50.822Z,4.30
2018-03-27T05:44:17.979Z,4.12
2018-03-27T05:46:44.769Z,3.67
2018-03-27T05:49:11.410Z,4.03
2018-03-27T05:51:38.042Z,4.28
2018-03-27T05:54:04.630Z,3.60
2018-03-27T05:56:31.824Z,3.37
2018-03-27T05:58:58.669Z,3.75
2018-03-27T06:01:25.146Z,3.20
2018-03-27T06:03:51.728Z,3.05
2018-03-27T06:06:18.873Z,3.28
2018-03-27T06:08:46.072Z,3.28
2018-03-27T06:11:12.630Z,3.90
2018-03-27T06:13:39.393Z,3.85
2018-03-27T06:16:06.629Z,3.67
2018-03-27T06:18:33.651Z,4.32
2018-03-27T06:21:00.267Z,3.97
2018-03-27T06:23:27.458Z,3.72
2018-03-27T06:25:54.570Z,3.95
2018-03-27T06:28:21.745Z,3.55
2018-03-27T06:30:48.648Z,3.72
2018-03-27T06:33:15.255Z,3.10
2018-03-27T06:35:41.794Z,3.72
2018-03-27T06:38:08.304Z,4.32
2018-03-27T06:40:34.829Z,3.92
2018-03-27T06:43:01.338Z,3.95
2018-03-27T06:45:28.152Z,3.92
2018-03-27T06:47:55.110Z,3.70
2018-03-27T06:50:21.983Z,4.97
2018-03-27T06:52:48.795Z,4.35
2018-03-27T06:55:16.514Z,3.60
2018-03-27T06:57:43.474Z,4.95
2018-03-27T07:00:10.603Z,5.00
2018-03-27T07:02:37.435Z,5.20
2018-03-27T07:05:04.271Z,4.70
2018-03-27T07:07:31.095Z,4.32
2018-03-27T07:09:57.647Z,4.30
2018-03-27T07:12:24.236Z,4.80
2018-03-27T07:14:51.048Z,5.15
2018-03-27T07:17:17.858Z,5.22
2018-03-27T07:19:44.420Z,6.05
2018-03-27T07:22:11.197Z,5.85
2018-03-27T07:24:37.885Z,5.28
2018-03-27T07:27:04.525Z,5.80
2018-03-27T07:29:31.244Z,6.30
2018-03-27T07:31:57.867Z,5.90
2018-03-27T07:34:24.484Z,5.28
2018-03-27T07:36:51.180Z,6.05
2018-03-27T07:39:17.823Z,6.15
2018-03-27T07:41:45.055Z,6.47
2018-03-27T07:44:12.042Z,5.53
2018-03-27T07:46:38.790Z,4.90
2018-03-27T07:49:05.346Z,4.90
2018-03-27T07:51:32.178Z,6.32
2018-03-27T07:53:59.076Z,5.32
2018-03-27T07:56:25.650Z,4.40
2018-03-27T07:58:52.698Z,4.60
2018-03-27T08:01:19.912Z,3.53
2018-03-27T08:03:46.611Z,4.22
2018-03-27T08:08:47.059Z,3.55
2018-03-27T08:11:14.263Z,3.12
2018-03-27T08:13:40.911Z,2.67
2018-03-27T08:16:08.002Z,3.78
2018-03-27T08:18:34.986Z,3.00
2018-03-27T08:21:02.122Z,2.70
2018-03-27T08:23:28.982Z,3.20
2018-03-27T08:25:55.781Z,2.85
2018-03-27T08:28:22.619Z,2.55
2018-03-27T08:30:49.360Z,3.22
2018-03-27T08:33:16.537Z,3.58
2018-03-27T08:35:43.388Z,4.25
2018-03-27T08:38:10.345Z,3.65
2018-03-27T08:40:37.179Z,3.58
2018-03-27T08:43:03.932Z,3.42
2018-03-27T08:45:30.504Z,3.17
2018-03-27T08:47:57.382Z,3.40
2018-03-27T08:50:24.373Z,3.97
2018-03-27T08:52:51.055Z,3.33
2018-03-27T08:55:18.469Z,3.47
2018-03-27T08:57:45.061Z,4.20
2018-03-27T09:00:11.726Z,3.80
2018-03-27T09:02:38.482Z,4.80
2018-03-27T09:05:05.239Z,4.12
2018-03-27T09:07:32.010Z,4.68
2018-03-27T09:09:58.895Z,4.10
2018-03-27T09:12:25.690Z,4.35
2018-03-27T09:14:52.414Z,4.70
2018-03-27T09:17:19.065Z,4.53
2018-03-27T09:19:45.752Z,4.65
2018-03-27T09:22:12.506Z,4.12
2018-03-27T09:24:39.103Z,4.80
2018-03-27T09:27:05.859Z,4.05
2018-03-27T09:29:32.538Z,4.53
2018-03-27T09:31:59.109Z,4.72
2018-03-27T09:34:26.058Z,5.43
2018-03-27T09:36:53.031Z,5.22
2018-03-27T09:39:20.081Z,5.60
2018-03-27T09:41:46.970Z,5.53
2018-03-27T09:44:13.483Z,5.20
2018-03-27T09:46:40.153Z,4.80
2018-03-27T09:49:07.130Z,5.47
2018-03-27T09:51:34.391Z,5.90
2018-03-27T09:54:01.366Z,4.85
2018-03-27T09:56:28.061Z,5.70
2018-03-27T09:58:54.899Z,5.40
2018-03-27T10:01:27.491Z,5.90
2018-03-27T10:03:54.373Z,6.10
2018-03-27T10:06:20.989Z,5.10
2018-03-27T10:08:47.789Z,5.20
2018-03-27T10:11:15.966Z,5.47
2018-03-27T10:13:43.103Z,5.25
2018-03-27T10:16:10.359Z,6.32
2018-03-27T10:18:37.330Z,6.18
2018-03-27T10:21:04.083Z,5.55
2018-03-27T10:23:30.743Z,6.18
2018-03-27T10:25:57.761Z,5.55
2018-03-27T10:28:24.335Z,5.00
2018-03-27T10:30:51.002Z,5.60
2018-03-27T10:33:17.624Z,6.47
2018-03-27T10:35:44.204Z,6.40
2018-03-27T10:38:10.986Z,6.30
2018-03-27T10:40:38.064Z,6.68
2018-03-27T10:43:04.830Z,7.25
2018-03-27T10:45:31.455Z,7.20
2018-03-27T10:47:58.842Z,8.30
2018-03-27T10:50:25.440Z,7.55
2018-03-27T10:52:52.108Z,7.45
2018-03-27T10:55:19.020Z,8.02
2018-03-27T10:57:46.053Z,8.07
2018-03-27T11:00:12.918Z,8.77
2018-03-27T11:02:40.468Z,9.15
2018-03-27T11:05:06.952Z,10.15
2018-03-27T11:07:34.058Z,9.90
2018-03-27T11:10:01.050Z,10.27
2018-03-27T11:12:27.807Z,11.30
2018-03-27T11:14:54.898Z,10.55
2018-03-27T11:17:21.495Z,12.48
2018-03-27T11:19:48.270Z,13.00
2018-03-27T11:22:14.961Z,13.02
2018-03-27T11:24:41.566Z,13.70
2018-03-27T11:27:08.113Z,12.40
2018-03-27T11:29:34.757Z,13.13
2018-03-27T11:32:01.457Z,12.63
2018-03-27T11:34:28.275Z,12.77
2018-03-27T11:36:54.853Z,11.95
2018-03-27T11:39:21.651Z,12.48
2018-03-27T11:41:48.632Z,12.77
2018-03-27T11:44:15.328Z,14.55
2018-03-27T11:46:42.065Z,14.07
2018-03-27T11:49:08.826Z,14.23
2018-03-27T11:51:35.484Z,14.13
2018-03-27T11:54:02.493Z,13.85
2018-03-27T11:56:29.415Z,13.35
2018-03-27T11:58:55.935Z,14.93
2018-03-27T12:01:23.057Z,14.25
2018-03-27T12:03:49.759Z,14.15
2018-03-27T12:06:16.842Z,15.60
2018-03-27T12:08:43.822Z,14.98
2018-03-27T12:11:10.326Z,14.68
2018-03-27T12:13:37.189Z,15.05
2018-03-27T12:16:03.982Z,15.55
2018-03-27T12:18:30.885Z,15.43
2018-03-27T12:20:57.695Z,16.40
2018-03-27T12:23:24.187Z,15.85
2018-03-27T12:25:50.674Z,16.62
2018-03-27T12:28:17.433Z,18.15
2018-03-27T12:30:44.767Z,16.65
2018-03-27T12:33:11.605Z,19.25
2018-03-27T12:35:38.448Z,18.80
2018-03-27T12:38:05.176Z,20.42
2018-03-27T12:40:31.627Z,18.40
2018-03-27T12:42:58.094Z,18.62
2018-03-27T12:45:24.663Z,18.67
2018-03-27T12:47:51.074Z,20.62
2018-03-27T12:50:17.827Z,20.37
2018-03-27T12:52:44.550Z,20.20
2018-03-27T12:55:11.239Z,19.55
2018-03-27T12:57:37.670Z,19.75
2018-03-27T13:00:04.129Z,21.37
2018-03-27T13:02:30.752Z,20.17
2018-03-27T13:04:57.303Z,19.98
2018-03-27T13:07:23.974Z,19.12
2018-03-27T13:09:50.603Z,20.50
2018-03-27T13:12:17.379Z,19.27
2018-03-27T13:14:44.111Z,19.52
2018-03-27T13:17:10.981Z,18.85
2018-03-27T13:19:37.472Z,17.27
2018-03-27T13:22:04.269Z,18.37
2018-03-27T13:24:31.082Z,18.80
2018-03-27T13:26:58.109Z,17.58
2018-03-27T13:29:24.636Z,18.60
2018-03-27T13:31:51.272Z,18.10
2018-03-27T13:34:17.820Z,18.80
2018-03-27T13:36:44.514Z,17.00
2018-03-27T13:39:11.236Z,16.27
2018-03-27T13:41:37.914Z,18.65
2018-03-27T13:44:04.704Z,18.75
2018-03-27T13:46:31.069Z,17.73
2018-03-27T13:48:57.681Z,19.67
2018-03-27T13:51:24.118Z,19.90
2018-03-27T13:53:50.862Z,17.55
2018-03-27T13:56:17.984Z,18.37
2018-03-27T13:58:44.777Z,19.15
2018-03-27T14:01:11.353Z,17.25
2018-03-27T14:03:38.006Z,17.65
2018-03-27T14:06:04.684Z,17.17
2018-03-27T14:08:31.438Z,18.40
2018-03-27T14:10:58.266Z,18.25
2018-03-27T14:13:24.772Z,17.55
2018-03-27T14:15:51.571Z,19.37
2018-03-27T14:18:18.361Z,18.40
2018-03-27T14:20:45.190Z,17.87
2018-03-27T14:23:11.655Z,18.05
2018-03-27T14:25:38.405Z,16.90
2018-03-27T14:28:04.926Z,18.87
2018-03-27T14:30:31.857Z,18.50
2018-03-27T14:32:58.478Z,17.08
2018-03-27T14:35:25.460Z,17.87
2018-03-27T14:37:52.185Z,19.77
2018-03-27T14:40:18.922Z,18.80
2018-03-27T14:42:45.787Z,20.05
2018-03-27T14:45:12.304Z,19.42
2018-03-27T14:47:39.062Z,16.25
2018-03-27T14:50:05.719Z,18.12
2018-03-27T14:52:32.961Z,17.48
2018-03-27T14:54:59.869Z,17.70
2018-03-27T14:57:27.607Z,20.37
2018-03-27T15:02:28.206Z,18.67
2018-03-27T15:04:54.930Z,19.50
2018-03-27T15:07:21.685Z,18.90
2018-03-27T15:09:52.077Z,19.12
2018-03-27T15:12:18.576Z,17.92
2018-03-27T15:14:45.268Z,19.98
2018-03-27T15:17:12.878Z,19.20
2018-03-27T15:19:39.638Z,17.60
2018-03-27T15:22:06.444Z,20.85
2018-03-27T15:24:33.239Z,18.12
2018-03-27T15:26:59.753Z,19.33
2018-03-27T15:29:26.428Z,18.15
2018-03-27T15:31:52.954Z,19.62
2018-03-27T15:34:19.555Z,17.73
2018-03-27T15:36:46.247Z,18.48
2018-03-27T15:39:12.698Z,18.25
2018-03-27T15:41:39.218Z,19.15
2018-03-27T15:44:05.731Z,20.12
2018-03-27T15:46:32.520Z,18.15
2018-03-27T15:48:59.033Z,17.62
2018-03-27T15:51:25.748Z,19.30
2018-03-27T15:53:52.289Z,18.92
2018-03-27T15:56:19.110Z,19.83
2018-03-27T15:58:45.810Z,20.42
2018-03-27T16:01:12.323Z,19.75
2018-03-27T16:03:39.083Z,20.88
2018-03-27T16:06:05.685Z,20.00
2018-03-27T16:08:32.289Z,21.40
2018-03-27T16:10:59.063Z,21.62
2018-03-27T16:13:26.131Z,21.80
2018-03-27T16:15:53.444Z,22.58
2018-03-27T16:18:20.488Z,22.42
2018-03-27T16:20:47.132Z,21.10
2018-03-27T16:23:13.739Z,21.73
2018-03-27T16:25:40.326Z,19.52
2018-03-27T16:28:07.028Z,20.37
2018-03-27T16:30:33.683Z,19.80
2018-03-27T16:33:00.400Z,24.25
2018-03-27T16:35:26.948Z,23.30
2018-03-27T16:37:53.682Z,22.85
2018-03-27T16:40:20.465Z,23.17
2018-03-27T16:42:47.239Z,22.20
2018-03-27T16:45:14.112Z,20.98
2018-03-27T16:47:41.014Z,18.98
2018-03-27T16:50:07.637Z,20.17
2018-03-27T16:52:34.168Z,19.00
2018-03-27T16:55:00.934Z,19.65
2018-03-27T16:57:27.527Z,19.50
2018-03-27T16:59:54.071Z,20.35
2018-03-27T17:02:20.659Z,22.92
2018-03-27T17:04:47.408Z,21.55
2018-03-27T17:07:14.069Z,23.55
2018-03-27T17:09:40.763Z,23.02
2018-03-27T17:12:07.517Z,23.33
2018-03-27T17:14:34.326Z,22.05
2018-03-27T17:17:00.962Z,22.85
2018-03-27T17:19:27.464Z,22.08
2018-03-27T17:21:54.010Z,23.10
2018-03-27T17:24:20.840Z,22.80
2018-03-27T17:26:47.370Z,22.62
2018-03-27T17:29:13.969Z,24.55
2018-03-27T17:31:40.421Z,21.00
2018-03-27T17:34:07.468Z,22.65
2018-03-27T17:36:34.259Z,24.40
2018-03-27T17:39:00.980Z,22.20
2018-03-27T17:41:27.534Z,21.12
2018-03-27T17:43:54.172Z,23.77
2018-03-27T17:46:21.116Z,20.88
2018-03-27T17:48:47.774Z,21.73
2018-03-27T17:51:14.420Z,22.42
2018-03-27T17:53:41.132Z,21.55
2018-03-27T17:56:07.950Z,22.35
2018-03-27T17:58:34.802Z,21.23
2018-03-27T18:01:01.580Z,21.40
2018-03-27T18:03:28.194Z,20.30
2018-03-27T18:05:55.136Z,19.60
2018-03-27T18:08:22.308Z,21.15
2018-03-27T18:10:49.654Z,19.48
2018-03-27T18:13:16.574Z,19.25
2018-03-27T18:15:43.142Z,18.40
2018-03-27T18:18:09.894Z,20.33
2018-03-27T18:20:38.438Z,19.20
2018-03-27T18:23:05.210Z,19.90
2018-03-27T18:25:31.823Z,19.30
2018-03-27T18:27:58.423Z,21.80
2018-03-27T18:30:25.072Z,22.55
2018-03-27T18:32:52.219Z,23.77
2018-03-27T18:35:18.688Z,22.35
2018-03-27T18:37:45.638Z,20.70
2018-03-27T18:40:12.455Z,21.00
2018-03-27T18:42:39.417Z,20.30
2018-03-27T18:45:06.261Z,22.65
2018-03-27T18:47:32.893Z,22.05
2018-03-27T18:49:59.524Z,20.37
2018-03-27T18:52:26.132Z,21.67
2018-03-27T18:54:52.606Z,22.42
2018-03-27T18:57:19.454Z,20.42
2018-03-27T18:59:45.971Z,21.98
2018-03-27T19:02:12.454Z,20.85
2018-03-27T19:04:44.703Z,19.02
2018-03-27T19:07:11.775Z,20.10
2018-03-27T19:09:38.361Z,19.12
2018-03-27T19:12:04.838Z,20.30
2018-03-27T19:14:31.530Z,22.67
2018-03-27T19:16:58.166Z,22.92
2018-03-27T19:19:24.787Z,25.15
2018-03-27T19:21:51.500Z,25.95
2018-03-27T19:24:18.995Z,21.95
2018-03-27T19:26:45.729Z,20.33
2018-03-27T19:29:12.102Z,22.20
2018-03-27T19:31:38.709Z,20.02
2018-03-27T19:34:05.394Z,18.95
2018-03-27T19:36:32.234Z,19.42
2018-03-27T19:38:58.710Z,20.60
2018-03-27T19:41:25.197Z,19.85
2018-03-27T19:43:51.688Z,20.80
2018-03-27T19:46:18.206Z,20.05
2018-03-27T19:48:44.811Z,19.58
2018-03-27T19:51:11.379Z,19.35
2018-03-27T19:53:38.044Z,20.83
2018-03-27T19:56:04.574Z,19.67
2018-03-27T19:58:31.103Z,19.40
2018-03-27T20:00:57.824Z,17.95
2018-03-27T20:03:24.380Z,18.40
2018-03-27T20:05:50.987Z,18.58
2018-03-27T20:08:17.599Z,17.25
2018-03-27T20:10:44.363Z,18.65
2018-03-27T20:13:10.928Z,16.20
2018-03-27T20:15:41.702Z,15.98
2018-03-27T20:18:04.442Z,16.25
2018-03-27T20:20:30.914Z,16.58
2018-03-27T20:22:57.460Z,16.48
2018-03-27T20:25:23.995Z,17.75
2018-03-27T20:27:50.418Z,18.00
2018-03-27T20:30:17.069Z,20.20
2018-03-27T20:32:43.617Z,19.87
2018-03-27T20:35:10.059Z,20.88
2018-03-27T20:37:36.671Z,19.95
2018-03-27T20:40:03.299Z,19.12
2018-03-27T20:42:30.052Z,19.00
2018-03-27T20:44:56.736Z,17.80
2018-03-27T20:49:46.317Z,19.00
2018-03-27T20:52:13.385Z,19.40
2018-03-27T20:54:39.959Z,19.33
2018-03-27T20:57:13.467Z,19.17
2018-03-27T20:59:40.294Z,21.52
2018-03-27T21:02:06.873Z,20.10
2018-03-27T21:04:33.548Z,21.37
2018-03-27T21:07:00.277Z,19.58
2018-03-27T21:09:26.817Z,18.08
2018-03-27T21:11:53.402Z,17.95
2018-03-27T21:14:19.934Z,19.15
2018-03-27T21:16:46.686Z,18.37
2018-03-27T21:19:13.426Z,18.40
2018-03-27T21:21:40.043Z,18.05
2018-03-27T21:24:06.588Z,17.58
2018-03-27T21:26:32.954Z,16.55
2018-03-27T21:28:59.473Z,19.20
2018-03-27T21:31:26.026Z,18.98
2018-03-27T21:33:52.509Z,19.92
2018-03-27T21:36:19.301Z,20.42
2018-03-27T21:38:45.737Z,16.30
2018-03-27T21:41:12.366Z,15.68
2018-03-27T21:43:38.737Z,16.23
2018-03-27T21:46:05.378Z,16.70
2018-03-27T21:48:31.921Z,17.02
2018-03-27T21:50:58.556Z,16.25
2018-03-27T21:53:25.265Z,16.75
2018-03-27T21:55:51.934Z,18.90
2018-03-27T21:58:18.814Z,16.77
2018-03-27T22:00:45.345Z,18.33
2018-03-27T22:03:12.171Z,16.42
2018-03-27T22:05:38.804Z,16.55
2018-03-27T22:08:05.262Z,16.60
2018-03-27T22:10:31.640Z,17.37
2018-03-27T22:12:58.234Z,16.17
2018-03-27T22:15:24.687Z,16.83
2018-03-27T22:17:51.255Z,15.75
2018-03-27T22:20:18.297Z,17.83
2018-03-27T22:22:45.018Z,17.17
2018-03-27T22:25:11.676Z,18.77
2018-03-27T22:27:38.142Z,18.40
2018-03-27T22:30:04.722Z,19.70
2018-03-27T22:32:31.298Z,20.45
2018-03-27T22:34:58.050Z,25.15
2018-03-27T22:37:24.784Z,23.48
2018-03-27T22:39:51.597Z,23.25
2018-03-27T22:42:18.258Z,27.02
2018-03-27T22:44:44.971Z,22.77
2018-03-27T22:47:11.451Z,24.65
2018-03-27T22:49:38.185Z,22.98
2018-03-27T22:52:04.910Z,23.75
2018-03-27T22:54:31.416Z,23.45
2018-03-27T22:56:58.166Z,22.75
2018-03-27T22:59:24.735Z,22.77
2018-03-27T23:01:51.286Z,25.15
2018-03-27T23:04:18.072Z,22.40
2018-03-27T23:06:44.643Z,23.65
2018-03-27T23:09:11.261Z,22.37
2018-03-27T23:11:37.784Z,23.27
2018-03-27T23:14:04.194Z,23.90
2018-03-27T23:16:30.587Z,25.15
2018-03-27T23:18:57.159Z,22.95
2018-03-27T23:21:23.963Z,24.25
2018-03-27T23:23:50.578Z,23.20
2018-03-27T23:26:17.194Z,23.02
2018-03-27T23:28:43.661Z,22.55
2018-03-27T23:31:10.267Z,21.73
2018-03-27T23:33:36.813Z,23.77
2018-03-27T23:36:03.521Z,23.65
2018-03-27T23:38:30.138Z,23.17
2018-03-27T23:40:56.752Z,24.92
2018-03-27T23:43:23.369Z,24.80
2018-03-27T23:45:49.866Z,25.58
2018-03-27T23:48:16.364Z,28.70
2018-03-27T23:50:42.721Z,24.12
2018-03-27T23:53:09.092Z,24.50
2018-03-27T23:55:35.705Z,25.77
2018-03-27T23:58:02.272Z,25.73
